Time;durP1;ratioP1;P1;durP2;ratioP2;P2;SDS_P1;SDS_P2;PMS_P1;PMS_P2;Temp;Humidity;BMP_temperature;BMP_pressure;BME280_temperature;BME280_humidity;BME280_pressure;Samples;Min_cycle;Max_cycle;Signal;HPM_P1;HPM_P2
2021/03/08 00:00:10;;;;;;;34.27;18.77;;;-1.30;99.90;;;;;;2101297;28;20184;-70
2021/03/08 00:01:11;;;;;;;27.38;16.83;;;-1.40;99.90;;;;;;2091422;28;20178;-71
2021/03/08 00:02:12;;;;;;;28.47;16.57;;;-1.40;99.90;;;;;;2091736;28;20211;-72
2021/03/08 00:03:14;;;;;;;29.50;16.60;;;-1.50;99.90;;;;;;2091823;28;20311;-71
2021/03/08 00:04:15;;;;;;;25.20;15.38;;;-1.50;99.90;;;;;;2091272;28;20180;-71
2021/03/08 00:05:16;;;;;;;32.33;18.73;;;-1.50;99.90;;;;;;2082910;28;20336;-71
2021/03/08 00:06:17;;;;;;;29.98;17.80;;;-1.50;99.90;;;;;;2074855;28;20178;-71
2021/03/08 00:07:18;;;;;;;33.93;18.53;;;-1.50;99.90;;;;;;2082801;28;20186;-71
2021/03/08 00:08:20;;;;;;;30.60;17.73;;;-1.60;99.90;;;;;;2091642;28;20236;-71
2021/03/08 00:09:21;;;;;;;26.65;16.30;;;-1.60;99.90;;;;;;2091673;28;20631;-71
2021/03/08 00:10:22;;;;;;;30.67;16.03;;;-1.70;99.90;;;;;;2091546;28;20228;-71
2021/03/08 00:11:22;;;;;;;31.95;17.48;;;-1.70;99.90;;;;;;2090871;28;20654;-71
2021/03/08 00:12:23;;;;;;;28.10;16.77;;;-1.70;99.90;;;;;;2091592;28;20184;-70
2021/03/08 00:13:24;;;;;;;28.70;16.50;;;-1.70;99.90;;;;;;2091540;28;20206;-70
2021/03/08 00:14:25;;;;;;;29.17;16.00;;;-1.70;99.90;;;;;;2091111;28;20182;-71
2021/03/08 00:15:26;;;;;;;29.10;17.23;;;-1.80;99.90;;;;;;2090779;28;20240;-71
2021/03/08 00:16:26;;;;;;;28.10;16.95;;;-1.80;99.90;;;;;;2082731;28;20189;-71
2021/03/08 00:17:27;;;;;;;31.50;16.53;;;-1.80;99.90;;;;;;2074425;28;20182;-71
2021/03/08 00:18:28;;;;;;;29.13;15.73;;;-1.80;99.90;;;;;;2082808;28;20589;-71
2021/03/08 00:19:29;;;;;;;25.40;15.20;;;-1.80;99.90;;;;;;2091508;28;20215;-71
2021/03/08 00:20:30;;;;;;;29.03;16.00;;;-1.90;99.90;;;;;;2091503;28;20197;-71
2021/03/08 00:21:31;;;;;;;29.70;17.45;;;-1.90;99.90;;;;;;2090669;28;20172;-71
2021/03/08 00:22:31;;;;;;;32.55;17.65;;;-1.90;99.90;;;;;;2091651;28;20545;-71
2021/03/08 00:23:32;;;;;;;32.17;17.03;;;-1.90;99.90;;;;;;2091438;28;20267;-71
2021/03/08 00:24:33;;;;;;;31.00;18.97;;;-2.00;99.90;;;;;;2091548;28;20370;-71
2021/03/08 00:25:34;;;;;;;31.33;17.60;;;-2.00;99.90;;;;;;2091689;28;20180;-71
2021/03/08 00:26:34;;;;;;;28.05;15.77;;;-2.00;99.90;;;;;;2091486;28;20256;-70
2021/03/08 00:27:36;;;;;;;27.87;16.67;;;-2.00;99.90;;;;;;2082641;28;20688;-70
2021/03/08 00:28:36;;;;;;;34.22;17.67;;;-2.00;99.90;;;;;;2082584;28;20735;-71
2021/03/08 00:29:37;;;;;;;30.67;17.40;;;-2.10;99.90;;;;;;2082715;28;20268;-71
2021/03/08 00:30:38;;;;;;;34.17;17.73;;;-2.10;99.90;;;;;;2091475;28;20698;-70
2021/03/08 00:31:39;;;;;;;29.23;16.67;;;-2.00;99.90;;;;;;2090125;28;20212;-70
2021/03/08 00:32:39;;;;;;;31.07;16.93;;;-2.00;99.90;;;;;;2090914;28;20663;-71
2021/03/08 00:33:40;;;;;;;28.50;15.75;;;-2.10;99.90;;;;;;2090808;28;20176;-71
2021/03/08 00:34:41;;;;;;;27.90;17.17;;;-2.10;99.90;;;;;;2090793;28;20172;-70
2021/03/08 00:35:41;;;;;;;32.97;17.60;;;-2.10;99.90;;;;;;2091497;28;20657;-71
2021/03/08 00:36:42;;;;;;;31.90;17.40;;;-2.10;99.90;;;;;;2091508;28;20219;-71
2021/03/08 00:37:44;;;;;;;27.73;15.90;;;-2.10;99.90;;;;;;2091139;28;20193;-71
2021/03/08 00:38:44;;;;;;;28.33;16.58;;;-2.10;99.90;;;;;;2091468;28;20180;-70
2021/03/08 00:39:45;;;;;;;28.63;16.27;;;-2.20;99.90;;;;;;2082352;28;20185;-71
2021/03/08 00:40:46;;;;;;;27.13;16.13;;;-2.20;99.90;;;;;;2082600;28;20323;-70
2021/03/08 00:41:46;;;;;;;28.83;16.47;;;-2.20;99.90;;;;;;2090396;28;20731;-71
2021/03/08 00:42:48;;;;;;;30.00;16.67;;;-2.20;99.90;;;;;;2090559;28;20172;-71
2021/03/08 00:43:49;;;;;;;27.95;15.93;;;-2.20;99.90;;;;;;2082702;28;20196;-71
2021/03/08 00:44:50;;;;;;;33.23;17.00;;;-2.20;99.90;;;;;;2091417;28;20211;-70
2021/03/08 00:45:51;;;;;;;28.90;15.75;;;-2.20;99.90;;;;;;2091271;28;20588;-71
2021/03/08 00:46:53;;;;;;;26.60;15.90;;;-2.20;99.90;;;;;;2090946;28;20189;-71
2021/03/08 00:47:53;;;;;;;29.42;16.17;;;-2.20;99.90;;;;;;2090647;28;20195;-71
2021/03/08 00:48:54;;;;;;;31.37;16.97;;;-2.20;99.90;;;;;;2089925;28;20187;-71
2021/03/08 00:49:55;;;;;;;27.07;15.73;;;-2.30;99.90;;;;;;2089462;28;20283;-71
2021/03/08 00:50:55;;;;;;;29.53;15.73;;;-2.30;99.90;;;;;;2089541;28;20597;-71
2021/03/08 00:51:56;;;;;;;30.60;15.87;;;-2.30;99.90;;;;;;2090111;28;20173;-71
2021/03/08 00:52:57;;;;;;;28.53;15.77;;;-2.20;99.90;;;;;;2090010;28;20181;-71
2021/03/08 00:53:57;;;;;;;26.37;15.77;;;-2.30;99.90;;;;;;2089995;28;20263;-71
2021/03/08 00:54:58;;;;;;;30.30;16.73;;;-2.30;99.90;;;;;;2090077;28;20189;-70
2021/03/08 00:55:59;;;;;;;28.73;17.13;;;-2.30;99.90;;;;;;2090189;28;20212;-71
2021/03/08 00:56:59;;;;;;;29.57;15.87;;;-2.30;99.90;;;;;;2089953;28;20255;-71
2021/03/08 00:58:00;;;;;;;31.60;17.50;;;-2.40;99.90;;;;;;2090299;28;20698;-70
2021/03/08 00:59:01;;;;;;;29.47;17.13;;;-2.40;99.90;;;;;;2089968;28;20176;-71
2021/03/08 01:00:04;;;;;;;24.67;15.40;;;-2.40;99.90;;;;;;2089445;28;20672;-71
2021/03/08 01:01:05;;;;;;;26.30;15.30;;;-2.40;99.90;;;;;;2088338;28;20245;-71
2021/03/08 01:02:07;;;;;;;29.27;16.07;;;-2.40;99.90;;;;;;2081369;28;20652;-71
2021/03/08 01:03:08;;;;;;;25.90;15.55;;;-2.40;99.90;;;;;;2072794;28;20241;-70
2021/03/08 01:04:08;;;;;;;28.27;14.87;;;-2.40;99.90;;;;;;2073013;28;20181;-71
2021/03/08 01:05:10;;;;;;;35.20;18.23;;;-2.40;99.90;;;;;;2089113;28;20267;-71
2021/03/08 01:06:10;;;;;;;30.83;15.63;;;-2.50;99.90;;;;;;2089469;28;20250;-71
2021/03/08 01:07:11;;;;;;;29.73;16.93;;;-2.50;99.90;;;;;;2089900;28;20176;-71
2021/03/08 01:08:12;;;;;;;34.80;17.93;;;-2.50;99.90;;;;;;2089777;28;20204;-70
2021/03/08 01:09:12;;;;;;;31.90;16.73;;;-2.50;99.90;;;;;;2089681;28;20265;-70
2021/03/08 01:10:19;;;;;;;28.40;16.67;;;-2.50;99.90;;;;;;2089876;28;20223;-70
2021/03/08 01:11:20;;;;;;;31.15;16.13;;;-2.50;99.90;;;;;;2089302;28;20172;-70
2021/03/08 01:12:20;;;;;;;27.77;15.87;;;-2.50;99.90;;;;;;2090058;28;20271;-71
2021/03/08 01:13:21;;;;;;;28.07;16.47;;;-2.50;99.90;;;;;;2089821;28;20216;-70
2021/03/08 01:14:22;;;;;;;29.30;16.50;;;-2.60;99.90;;;;;;2090043;28;20176;-70
2021/03/08 01:15:23;;;;;;;28.20;16.17;;;-2.50;99.90;;;;;;2089729;28;20172;-70
2021/03/08 01:16:24;;;;;;;32.05;17.60;;;-2.60;99.90;;;;;;2072960;28;20193;-71
2021/03/08 01:17:24;;;;;;;27.50;17.33;;;-2.50;99.90;;;;;;2072893;28;20193;-70
2021/03/08 01:18:26;;;;;;;27.43;16.30;;;-2.50;99.90;;;;;;2090045;28;20181;-71
2021/03/08 01:19:27;;;;;;;26.92;16.02;;;-2.60;99.90;;;;;;2081051;28;20207;-70
2021/03/08 01:20:28;;;;;;;28.27;16.25;;;-2.60;99.90;;;;;;2081297;28;20676;-71
2021/03/08 01:21:29;;;;;;;32.15;17.60;;;-2.50;99.90;;;;;;2089052;28;20172;-70
2021/03/08 01:22:30;;;;;;;28.00;15.15;;;-2.60;99.90;;;;;;2081236;28;20185;-70
2021/03/08 01:23:31;;;;;;;32.57;17.93;;;-2.60;99.90;;;;;;2080896;28;20511;-71
2021/03/08 01:24:32;;;;;;;30.23;16.20;;;-2.60;99.90;;;;;;2089925;28;20191;-70
2021/03/08 01:25:32;;;;;;;27.87;16.43;;;-2.50;99.90;;;;;;2089801;28;20172;-70
2021/03/08 01:26:33;;;;;;;34.13;18.27;;;-2.50;99.90;;;;;;2089909;28;20242;-71
2021/03/08 01:27:34;;;;;;;27.43;15.43;;;-2.50;99.90;;;;;;2089051;28;20194;-71
2021/03/08 01:28:34;;;;;;;30.30;17.43;;;-2.50;99.90;;;;;;2089441;28;20188;-71
2021/03/08 01:29:35;;;;;;;32.53;18.07;;;-2.50;99.90;;;;;;2089768;28;20644;-70
2021/03/08 01:30:41;;;;;;;26.57;15.27;;;-2.50;99.90;;;;;;2089912;28;20181;-71
2021/03/08 01:31:42;;;;;;;32.28;16.15;;;-2.50;99.90;;;;;;2089184;28;20161;-71
2021/03/08 01:32:43;;;;;;;35.33;17.87;;;-2.50;99.90;;;;;;2090014;28;20235;-70
2021/03/08 01:33:44;;;;;;;31.00;17.70;;;-2.50;99.90;;;;;;2089849;28;20216;-70
2021/03/08 01:34:44;;;;;;;36.70;18.60;;;-2.50;99.90;;;;;;2090031;28;20215;-71
2021/03/08 01:35:45;;;;;;;32.57;16.40;;;-2.50;99.90;;;;;;2089784;28;20169;-71
2021/03/08 01:36:46;;;;;;;34.10;16.77;;;-2.50;99.90;;;;;;2081068;28;20177;-70
2021/03/08 01:37:47;;;;;;;29.20;15.73;;;-2.50;99.90;;;;;;2080878;28;20196;-71
2021/03/08 01:38:48;;;;;;;30.45;16.70;;;-2.50;99.90;;;;;;2081079;28;20550;-70
2021/03/08 01:39:48;;;;;;;28.47;16.80;;;-2.50;99.90;;;;;;2080836;28;20181;-71
2021/03/08 01:40:49;;;;;;;32.63;17.43;;;-2.50;99.90;;;;;;2088870;28;20172;-71
2021/03/08 01:41:50;;;;;;;30.67;16.83;;;-2.60;99.90;;;;;;2089172;28;20195;-71
2021/03/08 01:42:52;;;;;;;31.52;16.90;;;-2.60;99.90;;;;;;2089102;28;20184;-71
2021/03/08 01:43:52;;;;;;;31.35;17.73;;;-2.60;99.90;;;;;;2089911;28;20707;-71
2021/03/08 01:44:53;;;;;;;30.63;16.43;;;-2.60;99.90;;;;;;2089926;28;20180;-71
2021/03/08 01:45:54;;;;;;;28.47;16.40;;;-2.60;99.90;;;;;;2089185;28;20605;-70
2021/03/08 01:46:55;;;;;;;31.50;16.37;;;-2.60;99.90;;;;;;2089212;28;20178;-71
2021/03/08 01:47:56;;;;;;;29.25;16.92;;;-2.60;99.90;;;;;;2089523;28;20230;-71
2021/03/08 01:48:57;;;;;;;28.45;16.42;;;-2.60;99.90;;;;;;2089634;28;20181;-70
2021/03/08 01:49:58;;;;;;;30.07;15.87;;;-2.60;99.90;;;;;;2080836;28;20629;-70
2021/03/08 01:50:59;;;;;;;27.38;15.82;;;-2.70;99.90;;;;;;2080377;28;20185;-71
2021/03/08 01:52:00;;;;;;;27.05;15.48;;;-2.70;99.90;;;;;;2081002;28;20208;-71
2021/03/08 01:53:03;;;;;;;28.70;17.00;;;-2.70;99.90;;;;;;2080758;28;20181;-71
2021/03/08 01:54:05;;;;;;;24.65;15.35;;;-2.70;99.90;;;;;;2089548;28;20190;-70
2021/03/08 01:55:08;;;;;;;26.30;15.25;;;-2.70;99.90;;;;;;2080704;28;20227;-71
2021/03/08 01:56:09;;;;;;;29.10;15.90;;;-2.80;99.90;;;;;;2081125;28;20831;-70
2021/03/08 01:57:10;;;;;;;27.35;14.65;;;-2.80;99.90;;;;;;2080737;28;20560;-72
2021/03/08 01:58:12;;;;;;;31.20;16.45;;;-2.80;99.90;;;;;;2080957;28;20195;-70
2021/03/08 01:59:13;;;;;;;29.27;16.05;;;-2.80;99.90;;;;;;2080483;28;20181;-71
2021/03/08 02:00:15;;;;;;;28.07;16.10;;;-2.90;99.90;;;;;;2072277;28;20205;-71
2021/03/08 02:01:15;;;;;;;27.23;14.95;;;-2.90;99.90;;;;;;2080203;28;20551;-71
2021/03/08 02:02:17;;;;;;;25.77;15.10;;;-2.90;99.90;;;;;;2089143;28;20227;-70
2021/03/08 02:03:17;;;;;;;26.25;14.48;;;-2.90;99.90;;;;;;2080559;28;20213;-70
2021/03/08 02:04:18;;;;;;;29.43;15.83;;;-2.90;99.90;;;;;;2072403;28;20974;-71
2021/03/08 02:05:23;;;;;;;31.47;16.97;;;-2.90;99.90;;;;;;2080597;28;20587;-70
2021/03/08 02:06:24;;;;;;;32.92;16.60;;;-2.90;99.90;;;;;;2080939;28;20171;-71
2021/03/08 02:07:25;;;;;;;29.77;16.53;;;-2.90;99.90;;;;;;2080634;28;20184;-70
2021/03/08 02:08:26;;;;;;;29.70;15.67;;;-2.90;99.90;;;;;;2089712;28;20204;-71
2021/03/08 02:09:27;;;;;;;28.63;15.38;;;-3.00;99.90;;;;;;2080519;28;20177;-71
2021/03/08 02:10:30;;;;;;;31.73;17.30;;;-3.00;99.90;;;;;;2080519;28;20627;-70
2021/03/08 02:11:36;;;;;;;25.67;14.98;;;-3.00;99.90;;;;;;2088260;28;20164;-70
2021/03/08 02:12:48;;;;;;;27.83;15.65;;;-3.00;99.90;;;;;;2080659;28;20633;-70
2021/03/08 02:13:57;;;;;;;25.48;14.50;;;-3.10;99.90;;;;;;2082341;28;20174;-70
2021/03/08 02:15:32;;;;;;;30.45;16.42;;;-3.10;99.90;;;;;;2080747;28;20177;-70
2021/03/08 02:17:02;;;;;;;26.23;14.55;;;-3.10;99.90;;;;;;2052474;28;20337;-70
2021/03/08 02:18:12;;;;;;;22.23;12.95;;;-3.20;99.90;;;;;;2060956;28;20189;-71
2021/03/08 02:20:17;;;;;;;26.58;14.13;;;-3.20;99.90;;;;;;2080797;28;20172;-71
2021/03/08 02:22:21;;;;;;;25.98;12.38;;;-3.20;99.90;;;;;;2046956;28;20575;-70
2021/03/08 02:24:05;;;;;;;23.90;13.27;;;-3.10;99.90;;;;;;2071823;28;20324;-71
2021/03/08 02:25:29;;;;;;;21.95;12.02;;;-3.20;99.90;;;;;;2072080;28;20680;-70
2021/03/08 02:26:36;;;;;;;21.60;12.82;;;-3.20;99.90;;;;;;2089286;28;20202;-70
2021/03/08 02:27:48;;;;;;;22.95;13.05;;;-3.20;99.90;;;;;;2080515;28;20181;-70
2021/03/08 02:29:06;;;;;;;22.00;12.48;;;-3.30;99.90;;;;;;2082230;28;20169;-70
2021/03/08 02:30:29;;;;;;;27.27;13.45;;;-3.30;99.90;;;;;;2080367;28;20205;-71
2021/03/08 02:31:32;;;;;;;24.88;13.98;;;-3.30;99.90;;;;;;2074606;28;20783;-71
2021/03/08 02:32:37;;;;;;;25.50;14.23;;;-3.30;99.90;;;;;;2080833;28;20189;-70
2021/03/08 02:33:41;;;;;;;27.30;14.88;;;-3.30;99.90;;;;;;2088703;28;20195;-70
2021/03/08 02:35:00;;;;;;;30.40;15.85;;;-3.30;99.90;;;;;;2080482;28;20616;-70
2021/03/08 02:36:05;;;;;;;24.65;14.48;;;-3.30;99.90;;;;;;2074934;28;20170;-70
2021/03/08 02:37:20;;;;;;;25.00;14.13;;;-3.30;99.90;;;;;;2072610;28;20213;-70
2021/03/08 02:38:27;;;;;;;24.73;14.32;;;-3.40;99.90;;;;;;2074131;28;20249;-70
2021/03/08 02:39:35;;;;;;;25.40;15.35;;;-3.40;99.90;;;;;;2073083;28;20189;-70
2021/03/08 02:40:48;;;;;;;28.08;15.23;;;-3.30;99.90;;;;;;2081332;28;20165;-70
2021/03/08 02:41:52;;;;;;;26.33;14.20;;;-3.30;99.90;;;;;;2080348;28;20232;-70
2021/03/08 02:42:56;;;;;;;28.58;14.48;;;-3.30;99.90;;;;;;2080641;28;20319;-71
2021/03/08 02:44:02;;;;;;;28.27;15.07;;;-3.30;99.90;;;;;;2080367;28;20666;-71
2021/03/08 02:45:07;;;;;;;29.55;14.52;;;-3.40;99.90;;;;;;2081319;28;20177;-71
2021/03/08 02:46:29;;;;;;;25.33;14.00;;;-3.40;99.90;;;;;;2088605;28;20191;-71
2021/03/08 02:47:32;;;;;;;23.23;13.95;;;-3.40;99.90;;;;;;2080281;28;20587;-70
2021/03/08 02:48:37;;;;;;;22.83;13.05;;;-3.40;99.90;;;;;;2072863;28;20591;-71
2021/03/08 02:49:39;;;;;;;24.08;13.45;;;-3.40;99.90;;;;;;2072586;28;20595;-70
2021/03/08 02:50:42;;;;;;;21.85;13.25;;;-3.40;99.90;;;;;;2072438;28;20245;-71
2021/03/08 02:51:47;;;;;;;24.13;13.68;;;-3.50;99.90;;;;;;2071743;28;20177;-71
2021/03/08 02:53:00;;;;;;;23.55;13.75;;;-3.40;99.90;;;;;;2073104;28;20185;-71
2021/03/08 02:54:03;;;;;;;25.38;14.38;;;-3.50;99.90;;;;;;2082044;28;20181;-71
2021/03/08 02:55:06;;;;;;;23.23;14.05;;;-3.50;99.90;;;;;;2088624;28;20188;-71
2021/03/08 02:56:18;;;;;;;24.38;13.55;;;-3.50;99.90;;;;;;2080370;28;20200;-71
2021/03/08 02:57:24;;;;;;;26.20;15.10;;;-3.50;99.90;;;;;;2073729;28;20174;-71
2021/03/08 02:58:28;;;;;;;24.42;14.25;;;-3.50;99.90;;;;;;2073131;28;20181;-70
2021/03/08 02:59:36;;;;;;;26.05;14.75;;;-3.50;99.90;;;;;;2072383;28;20272;-71
2021/03/08 03:00:38;;;;;;;26.45;14.13;;;-3.50;99.90;;;;;;2081628;28;20524;-71
2021/03/08 03:01:42;;;;;;;22.55;13.48;;;-3.50;99.90;;;;;;2089282;28;20177;-70
2021/03/08 03:02:44;;;;;;;27.15;15.05;;;-3.50;99.90;;;;;;2083320;28;20178;-70
2021/03/08 03:03:49;;;;;;;29.00;16.23;;;-3.50;99.90;;;;;;2083524;28;20197;-70
2021/03/08 03:04:51;;;;;;;27.10;15.05;;;-3.50;99.90;;;;;;2089180;28;20172;-71
2021/03/08 03:05:55;;;;;;;25.65;14.52;;;-3.50;99.90;;;;;;2092887;28;20180;-70
2021/03/08 03:06:57;;;;;;;27.13;14.70;;;-3.50;99.90;;;;;;2080624;28;20188;-70
2021/03/08 03:08:02;;;;;;;30.90;15.90;;;-3.50;99.90;;;;;;2088411;28;20191;-71
2021/03/08 03:09:10;;;;;;;30.25;16.50;;;-3.50;99.90;;;;;;2088719;28;20161;-72
2021/03/08 03:10:13;;;;;;;22.90;13.48;;;-3.50;99.90;;;;;;2088293;28;20196;-71
2021/03/08 03:11:15;;;;;;;22.83;13.57;;;-3.50;99.90;;;;;;2080145;28;20244;-71
2021/03/08 03:12:16;;;;;;;22.23;13.48;;;-3.50;99.90;;;;;;2087867;28;20173;-71
2021/03/08 03:13:18;;;;;;;23.73;14.77;;;-3.60;99.90;;;;;;2088401;28;20678;-72
2021/03/08 03:14:22;;;;;;;22.20;13.68;;;-3.60;99.90;;;;;;2080289;28;20189;-71
2021/03/08 03:15:24;;;;;;;23.42;13.32;;;-3.60;99.90;;;;;;2080513;28;20181;-71
2021/03/08 03:16:26;;;;;;;24.30;13.98;;;-3.60;99.90;;;;;;2080431;28;20248;-71
2021/03/08 03:17:28;;;;;;;26.85;15.30;;;-3.60;99.90;;;;;;2080130;28;20189;-71
2021/03/08 03:18:30;;;;;;;28.88;16.05;;;-3.60;99.90;;;;;;2080196;28;20609;-71
2021/03/08 03:19:34;;;;;;;26.10;16.17;;;-3.60;99.90;;;;;;2080246;28;20657;-70
2021/03/08 03:20:36;;;;;;;24.63;15.38;;;-3.60;99.90;;;;;;2072491;28;20269;-71
2021/03/08 03:21:38;;;;;;;23.38;13.48;;;-3.60;99.90;;;;;;2071695;28;20211;-71
2021/03/08 03:22:44;;;;;;;25.65;14.65;;;-3.70;99.90;;;;;;2072146;28;20209;-71
2021/03/08 03:23:50;;;;;;;23.98;14.95;;;-3.70;99.90;;;;;;2080973;28;20192;-71
2021/03/08 03:24:55;;;;;;;25.67;15.90;;;-3.70;99.90;;;;;;2072049;28;20613;-71
2021/03/08 03:25:58;;;;;;;22.83;13.80;;;-3.70;99.90;;;;;;2073052;28;20182;-71
2021/03/08 03:27:03;;;;;;;23.02;14.13;;;-3.70;99.90;;;;;;2080305;28;20222;-71
2021/03/08 03:28:04;;;;;;;20.83;12.75;;;-3.60;99.90;;;;;;2064288;28;20242;-71
2021/03/08 03:29:07;;;;;;;22.20;13.63;;;-3.70;99.90;;;;;;2064426;28;20748;-72
2021/03/08 03:30:09;;;;;;;24.75;14.40;;;-3.70;99.90;;;;;;2072346;28;20197;-71
2021/03/08 03:31:10;;;;;;;25.00;14.15;;;-3.70;99.90;;;;;;2071503;28;20284;-71
2021/03/08 03:32:13;;;;;;;27.27;16.43;;;-3.70;99.90;;;;;;2071820;28;20174;-70
2021/03/08 03:33:15;;;;;;;27.75;15.90;;;-3.70;99.90;;;;;;2080767;28;20242;-72
2021/03/08 03:34:18;;;;;;;22.75;14.00;;;-3.70;99.90;;;;;;2080163;28;20227;-71
2021/03/08 03:35:25;;;;;;;31.13;16.05;;;-3.80;99.90;;;;;;2071985;28;20185;-71
2021/03/08 03:36:29;;;;;;;20.92;13.30;;;-3.70;99.90;;;;;;2073420;28;20236;-71
2021/03/08 03:37:32;;;;;;;26.55;15.85;;;-3.80;99.90;;;;;;2088530;28;20650;-72
2021/03/08 03:38:33;;;;;;;23.52;14.63;;;-3.80;99.90;;;;;;2088799;28;20246;-72
2021/03/08 03:39:34;;;;;;;24.73;15.13;;;-3.80;99.90;;;;;;2089033;28;20187;-72
2021/03/08 03:40:36;;;;;;;27.00;15.48;;;-3.80;99.90;;;;;;2088870;28;20191;-72
2021/03/08 03:41:39;;;;;;;26.33;14.88;;;-3.80;99.90;;;;;;2088435;28;20176;-72
2021/03/08 03:42:43;;;;;;;22.23;12.98;;;-3.80;99.90;;;;;;2079836;28;20276;-72
2021/03/08 03:43:44;;;;;;;22.55;14.07;;;-3.80;99.90;;;;;;2072553;28;20177;-73
2021/03/08 03:44:45;;;;;;;22.70;13.63;;;-3.80;99.90;;;;;;2080111;28;20599;-71
2021/03/08 03:45:46;;;;;;;24.73;14.70;;;-3.80;99.90;;;;;;2088273;28;20180;-72
2021/03/08 03:46:47;;;;;;;24.53;14.30;;;-3.80;99.90;;;;;;2088275;28;20234;-72
2021/03/08 03:47:49;;;;;;;26.42;14.95;;;-3.80;99.90;;;;;;2088789;28;20172;-72
2021/03/08 03:48:50;;;;;;;26.52;14.57;;;-3.80;99.90;;;;;;2088967;28;20259;-72
2021/03/08 03:49:51;;;;;;;23.05;13.82;;;-3.90;99.90;;;;;;2088889;28;20180;-72
2021/03/08 03:50:52;;;;;;;21.27;13.07;;;-3.90;99.90;;;;;;2088308;28;20266;-72
2021/03/08 03:51:53;;;;;;;25.67;14.60;;;-3.80;99.90;;;;;;2071758;28;20193;-72
2021/03/08 03:52:54;;;;;;;23.27;13.60;;;-3.90;99.90;;;;;;2063864;28;20425;-72
2021/03/08 03:53:54;;;;;;;22.37;13.67;;;-3.90;99.90;;;;;;2080021;28;20276;-72
2021/03/08 03:54:55;;;;;;;26.20;14.57;;;-3.90;99.90;;;;;;2088861;28;20208;-71
2021/03/08 03:55:56;;;;;;;24.23;14.43;;;-3.90;99.90;;;;;;2080001;28;20204;-72
2021/03/08 03:57:03;;;;;;;25.13;15.17;;;-3.90;99.90;;;;;;2080115;28;20236;-72
2021/03/08 03:58:30;;;;;;;25.58;14.43;;;-3.90;99.90;;;;;;2079960;28;20663;-72
2021/03/08 03:59:56;;;;;;;23.85;13.98;;;-3.90;99.90;;;;;;2075467;28;20231;-72
2021/03/08 04:01:08;;;;;;;24.02;13.43;;;-3.90;99.90;;;;;;2071302;28;20724;-72
2021/03/08 04:02:29;;;;;;;20.70;12.98;;;-4.00;99.90;;;;;;2075029;28;20193;-72
2021/03/08 04:04:01;;;;;;;21.88;12.70;;;-4.00;99.90;;;;;;2079568;28;20228;-72
2021/03/08 04:05:03;;;;;;;21.27;12.75;;;-4.00;99.90;;;;;;2084733;28;20168;-72
2021/03/08 04:06:06;;;;;;;23.98;14.77;;;-4.10;99.90;;;;;;2079914;28;20215;-70
2021/03/08 04:07:08;;;;;;;25.98;14.50;;;-4.00;99.90;;;;;;2072030;28;20657;-72
2021/03/08 04:08:11;;;;;;;24.80;13.95;;;-4.10;99.90;;;;;;2071914;28;20232;-72
2021/03/08 04:09:13;;;;;;;25.83;15.20;;;-4.10;99.90;;;;;;2080249;28;20571;-72
2021/03/08 04:10:14;;;;;;;23.02;13.45;;;-4.10;99.90;;;;;;2079999;28;20205;-72
2021/03/08 04:11:18;;;;;;;23.60;13.98;;;-4.10;99.90;;;;;;2079378;28;20673;-72
2021/03/08 04:12:24;;;;;;;21.17;13.10;;;-4.10;99.90;;;;;;2079883;28;20642;-71
2021/03/08 04:13:29;;;;;;;21.67;13.80;;;-4.10;99.90;;;;;;2080801;28;20292;-72
2021/03/08 04:14:33;;;;;;;22.83;14.13;;;-4.10;99.90;;;;;;2080008;28;20589;-71
2021/03/08 04:15:35;;;;;;;21.63;13.00;;;-4.10;99.90;;;;;;2080382;28;20196;-71
2021/03/08 04:16:42;;;;;;;24.00;14.38;;;-4.20;99.90;;;;;;2079827;28;20187;-72
2021/03/08 04:17:44;;;;;;;22.98;12.52;;;-4.20;99.90;;;;;;2072831;28;20194;-72
2021/03/08 04:18:49;;;;;;;22.08;13.27;;;-4.20;99.90;;;;;;2071883;28;20300;-72
2021/03/08 04:19:52;;;;;;;22.17;12.80;;;-4.30;99.90;;;;;;2080548;28;20181;-72
2021/03/08 04:20:58;;;;;;;23.05;14.23;;;-4.30;99.90;;;;;;2079272;28;20208;-72
2021/03/08 04:22:03;;;;;;;22.23;13.45;;;-4.30;99.90;;;;;;2080573;28;20268;-71
2021/03/08 04:23:07;;;;;;;22.15;13.90;;;-4.30;99.90;;;;;;2079957;28;20668;-72
2021/03/08 04:24:13;;;;;;;22.48;13.43;;;-4.30;99.90;;;;;;2073580;28;20186;-72
2021/03/08 04:25:16;;;;;;;24.83;14.57;;;-4.30;99.90;;;;;;2065907;28;20258;-71
2021/03/08 04:26:18;;;;;;;25.42;14.02;;;-4.30;99.90;;;;;;2065640;28;20261;-72
2021/03/08 04:27:21;;;;;;;24.42;14.50;;;-4.30;99.90;;;;;;2073359;28;20255;-71
2021/03/08 04:28:23;;;;;;;23.17;13.80;;;-4.30;99.90;;;;;;2073072;28;20181;-72
2021/03/08 04:29:24;;;;;;;23.90;14.70;;;-4.30;99.90;;;;;;2073210;28;20177;-72
2021/03/08 04:30:25;;;;;;;22.97;14.07;;;-4.30;99.90;;;;;;2081014;28;20204;-71
2021/03/08 04:31:26;;;;;;;24.15;14.68;;;-4.30;99.90;;;;;;2080470;28;20451;-71
2021/03/08 04:32:28;;;;;;;22.63;13.90;;;-4.30;99.90;;;;;;2072777;28;20185;-71
2021/03/08 04:33:30;;;;;;;25.77;14.77;;;-4.30;99.90;;;;;;2073384;28;20182;-72
2021/03/08 04:34:32;;;;;;;25.98;15.35;;;-4.40;99.90;;;;;;2081079;28;20254;-71
2021/03/08 04:35:34;;;;;;;25.13;15.35;;;-4.40;99.90;;;;;;2081319;28;20271;-71
2021/03/08 04:36:36;;;;;;;26.83;15.48;;;-4.40;99.90;;;;;;2072899;28;20267;-71
2021/03/08 04:37:40;;;;;;;27.45;16.35;;;-4.40;99.90;;;;;;2073321;28;20244;-72
2021/03/08 04:38:42;;;;;;;22.60;13.90;;;-4.40;99.90;;;;;;2073069;28;20184;-72
2021/03/08 04:39:45;;;;;;;24.58;14.05;;;-4.40;99.90;;;;;;2081294;28;20235;-72
2021/03/08 04:40:50;;;;;;;22.45;13.80;;;-4.40;99.90;;;;;;2080886;28;20181;-71
2021/03/08 04:41:52;;;;;;;23.35;14.27;;;-4.40;99.90;;;;;;2073473;28;20185;-71
2021/03/08 04:42:54;;;;;;;23.15;14.05;;;-4.40;99.90;;;;;;2072923;28;20699;-72
2021/03/08 04:43:55;;;;;;;22.40;13.73;;;-4.50;99.90;;;;;;2073053;28;20178;-71
2021/03/08 04:44:56;;;;;;;22.15;13.45;;;-4.50;99.90;;;;;;2072946;28;20189;-71
2021/03/08 04:45:58;;;;;;;24.05;14.50;;;-4.40;99.90;;;;;;2073029;28;20235;-72
2021/03/08 04:46:59;;;;;;;23.33;13.32;;;-4.50;99.90;;;;;;2072683;28;20225;-71
2021/03/08 04:48:02;;;;;;;27.55;15.98;;;-4.50;99.90;;;;;;2081083;28;20169;-72
2021/03/08 04:49:06;;;;;;;24.45;13.73;;;-4.50;99.90;;;;;;2080827;28;20197;-71
2021/03/08 04:50:08;;;;;;;24.65;14.55;;;-4.50;99.90;;;;;;2073108;28;20903;-72
2021/03/08 04:51:10;;;;;;;25.95;14.48;;;-4.50;99.90;;;;;;2072379;28;20205;-71
2021/03/08 04:52:13;;;;;;;27.23;15.07;;;-4.50;99.90;;;;;;2081136;28;20185;-71
2021/03/08 04:53:15;;;;;;;27.50;14.73;;;-4.50;99.90;;;;;;2080762;28;20181;-71
2021/03/08 04:54:17;;;;;;;25.63;14.88;;;-4.50;99.90;;;;;;2072992;28;20178;-71
2021/03/08 04:55:23;;;;;;;23.98;14.32;;;-4.50;99.90;;;;;;2064780;28;20244;-72
2021/03/08 04:56:26;;;;;;;25.10;14.68;;;-4.50;99.90;;;;;;2058805;28;20174;-71
2021/03/08 04:57:28;;;;;;;23.67;13.60;;;-4.50;99.90;;;;;;2073289;28;20649;-72
2021/03/08 04:58:31;;;;;;;21.33;12.93;;;-4.50;99.90;;;;;;2080910;28;20184;-72
2021/03/08 04:59:31;;;;;;;22.63;13.65;;;-4.50;99.90;;;;;;2073041;28;20184;-72
2021/03/08 05:00:34;;;;;;;22.80;13.40;;;-4.60;99.90;;;;;;2081041;28;20826;-72
2021/03/08 05:01:35;;;;;;;23.70;13.85;;;-4.60;99.90;;;;;;2088743;28;20192;-71
2021/03/08 05:02:39;;;;;;;23.80;15.30;;;-4.60;99.90;;;;;;2080995;28;20735;-72
2021/03/08 05:03:42;;;;;;;26.52;15.88;;;-4.60;99.90;;;;;;2081191;28;20236;-71
2021/03/08 05:04:49;;;;;;;27.80;14.93;;;-4.60;99.90;;;;;;2081070;28;20199;-72
2021/03/08 05:05:52;;;;;;;22.58;13.57;;;-4.60;99.90;;;;;;2073771;28;20176;-72
2021/03/08 05:06:53;;;;;;;23.48;13.80;;;-4.60;99.90;;;;;;2081294;28;20181;-72
2021/03/08 05:08:01;;;;;;;22.45;13.93;;;-4.60;99.90;;;;;;2080962;28;20181;-71
2021/03/08 05:09:02;;;;;;;22.27;14.35;;;-4.60;99.90;;;;;;2073696;28;20737;-72
2021/03/08 05:10:04;;;;;;;24.40;14.20;;;-4.60;99.90;;;;;;2072683;28;20198;-72
2021/03/08 05:11:06;;;;;;;22.40;13.63;;;-4.70;99.90;;;;;;2080554;28;20192;-71
2021/03/08 05:12:09;;;;;;;24.25;14.70;;;-4.70;99.90;;;;;;2081084;28;20207;-72
2021/03/08 05:13:11;;;;;;;24.20;14.48;;;-4.70;99.90;;;;;;2073216;28;20240;-71
2021/03/08 05:14:17;;;;;;;26.42;14.82;;;-4.70;99.90;;;;;;2072810;28;20185;-72
2021/03/08 05:15:18;;;;;;;24.83;14.70;;;-4.70;99.90;;;;;;2073791;28;20249;-71
2021/03/08 05:16:21;;;;;;;20.65;13.45;;;-4.70;99.90;;;;;;2080945;28;20191;-71
2021/03/08 05:17:23;;;;;;;24.88;14.48;;;-4.70;99.90;;;;;;2080771;28;20184;-72
2021/03/08 05:18:24;;;;;;;26.48;16.25;;;-4.70;99.90;;;;;;2080900;28;20180;-71
2021/03/08 05:19:26;;;;;;;23.65;14.48;;;-4.70;99.90;;;;;;2081027;28;20219;-71
2021/03/08 05:20:29;;;;;;;24.08;13.77;;;-4.70;99.90;;;;;;2080709;28;20204;-71
2021/03/08 05:21:32;;;;;;;23.35;14.38;;;-4.70;99.90;;;;;;2080634;28;20177;-71
2021/03/08 05:22:36;;;;;;;24.65;14.70;;;-4.70;99.90;;;;;;2080771;28;20181;-71
2021/03/08 05:23:36;;;;;;;24.50;13.95;;;-4.70;99.90;;;;;;2073074;28;20297;-71